Time,TemperatureF,DewpointF,PressureIn,WindDirection,WindDirectionDegrees,WindSpeedMPH,WindSpeedGustMPH,Humidity,HourlyPrecipIn,Conditions,Clouds,dailyrainin,SoftwareType,DateUTC
2013-02-10 00:01:00,22.0,21.0,-100.00,SSE,150,5.0,12.0,96,0.00,,,0.00,,2013-02-10 06:01:00,
2013-02-10 00:11:00,22.0,21.0,-100.00,SSE,150,5.0,12.0,96,0.00,,,0.00,,2013-02-10 06:11:00,
2013-02-10 00:21:00,22.0,21.0,-100.00,SSE,150,5.0,12.0,96,0.00,,,0.00,,2013-02-10 06:21:00,
2013-02-10 00:52:00,22.0,21.0,-100.00,SE,135,2.0,41.0,94,0.00,,,0.00,,2013-02-10 06:52:00,
2013-02-10 01:01:00,22.0,21.0,-100.00,SE,135,2.0,41.0,94,0.00,,,0.00,,2013-02-10 07:01:00,
2013-02-10 01:11:00,22.0,21.0,-100.00,SE,135,2.0,41.0,94,0.00,,,0.00,,2013-02-10 07:11:00,
2013-02-10 01:21:00,22.0,21.0,-100.00,SE,135,2.0,41.0,94,0.00,,,0.00,,2013-02-10 07:21:00,
2013-02-10 01:52:00,24.0,22.0,-100.00,SE,137,7.0,15.0,93,0.00,,,0.00,,2013-02-10 07:52:00,
2013-02-10 02:01:00,24.0,22.0,-100.00,SE,137,7.0,15.0,93,0.00,,,0.00,,2013-02-10 08:01:00,
2013-02-10 02:11:00,24.0,22.0,-100.00,SE,137,7.0,15.0,93,0.00,,,0.00,,2013-02-10 08:11:00,
2013-02-10 02:21:00,24.0,22.0,-100.00,SE,137,7.0,15.0,93,0.00,,,0.00,,2013-02-10 08:21:00,
2013-02-10 02:52:00,26.0,23.0,-100.00,SE,141,9.0,15.0,89,0.00,,,0.00,,2013-02-10 08:52:00,
2013-02-10 03:02:00,26.0,23.0,-100.00,SE,141,9.0,15.0,89,0.00,,,0.00,,2013-02-10 09:02:00,
2013-02-10 03:11:00,26.0,23.0,-100.00,SE,141,9.0,15.0,89,0.00,,,0.00,,2013-02-10 09:11:00,
2013-02-10 03:21:00,26.0,23.0,-100.00,SE,141,9.0,15.0,89,0.00,,,0.00,,2013-02-10 09:21:00,
2013-02-10 03:52:00,26.0,23.0,-100.00,SE,146,9.0,17.0,87,0.00,,,0.00,,2013-02-10 09:52:00,
2013-02-10 04:01:00,26.0,23.0,-100.00,SE,146,9.0,17.0,87,0.00,,,0.00,,2013-02-10 10:01:00,
2013-02-10 04:11:00,26.0,23.0,-100.00,SE,146,9.0,17.0,87,0.00,,,0.00,,2013-02-10 10:11:00,
2013-02-10 04:21:00,26.0,23.0,-100.00,SE,146,9.0,17.0,87,0.00,,,0.00,,2013-02-10 10:21:00,
2013-02-10 04:52:00,29.0,25.0,-100.00,SE,134,12.0,23.0,83,0.00,,,0.00,,2013-02-10 10:52:00,
2013-02-10 05:01:00,29.0,25.0,-100.00,SE,134,12.0,23.0,83,0.00,,,0.00,,2013-02-10 11:01:00,
2013-02-10 05:11:00,29.0,25.0,-100.00,SE,134,12.0,23.0,83,0.00,,,0.00,,2013-02-10 11:11:00,
2013-02-10 05:22:00,29.0,25.0,-100.00,SE,134,12.0,23.0,83,0.00,,,0.00,,2013-02-10 11:22:00,
2013-02-10 05:52:00,28.0,24.0,-100.00,SE,136,2.0,28.0,85,0.00,,,0.00,,2013-02-10 11:52:00,
2013-02-10 06:02:00,28.0,24.0,-100.00,SE,136,2.0,28.0,85,0.00,,,0.00,,2013-02-10 12:02:00,
2013-02-10 06:12:00,28.0,24.0,-100.00,SE,136,2.0,28.0,85,0.00,,,0.00,,2013-02-10 12:12:00,
2013-02-10 06:21:00,28.0,24.0,-100.00,SE,136,2.0,28.0,85,0.00,,,0.00,,2013-02-10 12:21:00,
2013-02-10 08:52:00,33.0,29.0,-100.00,ESE,122,0.0,21.0,84,-99.99,,,0.00,,2013-02-10 14:52:00,
2013-02-10 09:02:00,33.0,29.0,-100.00,ESE,122,0.0,21.0,84,-99.99,,,0.00,,2013-02-10 15:02:00,
2013-02-10 09:11:00,33.0,29.0,-100.00,ESE,122,0.0,21.0,84,-99.99,,,0.00,,2013-02-10 15:11:00,
2013-02-10 09:22:00,33.0,29.0,-100.00,ESE,122,0.0,21.0,84,-99.99,,,0.00,,2013-02-10 15:22:00,
2013-02-10 09:52:00,35.0,31.0,-100.00,SE,132,1.0,21.0,85,0.00,,,0.00,,2013-02-10 15:52:00,
2013-02-10 10:02:00,35.0,31.0,-100.00,SE,132,1.0,21.0,85,0.00,,,0.00,,2013-02-10 16:02:00,
2013-02-10 10:11:00,35.0,31.0,-100.00,SE,132,1.0,21.0,85,0.00,,,0.00,,2013-02-10 16:11:00,
2013-02-10 10:22:00,35.0,31.0,-100.00,SE,132,1.0,21.0,85,0.00,,,0.00,,2013-02-10 16:22:00,
2013-02-10 10:52:00,36.0,33.0,-100.00,SE,142,0.0,25.0,90,0.00,,,0.00,,2013-02-10 16:52:00,
2013-02-10 11:02:00,36.0,33.0,-100.00,SE,142,0.0,25.0,90,0.00,,,0.00,,2013-02-10 17:02:00,
2013-02-10 11:11:00,36.0,33.0,-100.00,SE,142,0.0,25.0,90,0.00,,,0.00,,2013-02-10 17:11:00,
2013-02-10 11:22:00,36.0,33.0,-100.00,SE,142,0.0,25.0,90,0.00,,,0.00,,2013-02-10 17:22:00,
2013-02-10 11:52:00,36.0,34.0,-100.00,SE,140,0.0,27.0,94,0.00,,,0.00,,2013-02-10 17:52:00,
2013-02-10 12:02:00,36.0,34.0,-100.00,SE,140,0.0,27.0,94,0.00,,,0.00,,2013-02-10 18:02:00,
2013-02-10 12:11:00,36.0,34.0,-100.00,SE,140,0.0,27.0,94,0.00,,,0.00,,2013-02-10 18:11:00,
2013-02-10 12:22:00,36.0,34.0,-100.00,SE,140,0.0,27.0,94,0.00,,,0.00,,2013-02-10 18:22:00,
2013-02-10 12:52:00,36.0,35.0,-100.00,SE,133,1.0,30.0,98,0.03,,,0.03,,2013-02-10 18:52:00,
2013-02-10 13:02:00,36.0,35.0,-100.00,SE,133,1.0,30.0,98,0.03,,,0.03,,2013-02-10 19:02:00,
2013-02-10 13:12:00,36.0,35.0,-100.00,SE,133,1.0,30.0,98,0.03,,,0.03,,2013-02-10 19:12:00,
2013-02-10 13:22:00,36.0,35.0,-100.00,SE,133,1.0,30.0,98,0.03,,,0.03,,2013-02-10 19:22:00,
2013-02-10 13:52:00,36.0,35.0,-100.00,SE,138,1.0,28.0,98,0.06,,,0.09,,2013-02-10 19:52:00,
2013-02-10 14:02:00,36.0,35.0,-100.00,SE,138,1.0,28.0,98,0.06,,,0.09,,2013-02-10 20:02:00,
2013-02-10 14:11:00,36.0,35.0,-100.00,SE,138,1.0,28.0,98,0.06,,,0.09,,2013-02-10 20:11:00,
2013-02-10 14:22:00,36.0,35.0,-100.00,SE,138,1.0,28.0,98,0.06,,,0.09,,2013-02-10 20:22:00,
2013-02-10 14:52:00,36.0,36.0,-100.00,SE,134,0.0,20.0,100,0.10,,,0.19,,2013-02-10 20:52:00,
2013-02-10 15:02:00,36.0,36.0,-100.00,SE,134,0.0,20.0,100,0.10,,,0.19,,2013-02-10 21:02:00,
2013-02-10 15:11:00,36.0,36.0,-100.00,SE,134,0.0,20.0,100,0.10,,,0.19,,2013-02-10 21:11:00,
2013-02-10 15:22:00,36.0,36.0,-100.00,SE,134,0.0,20.0,100,0.10,,,0.19,,2013-02-10 21:22:00,
2013-02-10 15:52:00,37.0,-99.9,-100.00,SSE,149,2.0,23.0,-999,0.13,,,0.32,,2013-02-10 21:52:00,
2013-02-10 16:02:00,37.0,-99.9,-100.00,SSE,149,2.0,23.0,-999,0.13,,,0.32,,2013-02-10 22:02:00,
2013-02-10 16:12:00,37.0,-99.9,-100.00,SSE,149,2.0,23.0,-999,0.13,,,0.32,,2013-02-10 22:12:00,
2013-02-10 16:22:00,37.0,-99.9,-100.00,SSE,149,2.0,23.0,-999,0.13,,,0.32,,2013-02-10 22:22:00,
2013-02-10 16:53:00,39.0,-99.9,-100.00,SSE,153,0.0,7.0,-999,0.05,,,0.37,,2013-02-10 22:53:00,
2013-02-10 17:02:00,39.0,-99.9,-100.00,SSE,153,0.0,7.0,-999,0.05,,,0.37,,2013-02-10 23:02:00,
2013-02-10 17:12:00,39.0,-99.9,-100.00,SSE,153,0.0,7.0,-999,0.05,,,0.37,,2013-02-10 23:12:00,
2013-02-10 17:22:00,39.0,-99.9,-100.00,SSE,153,0.0,7.0,-999,0.05,,,0.37,,2013-02-10 23:22:00,
2013-02-10 17:53:00,38.0,-99.9,-100.00,SSE,153,0.0,18.0,-999,0.02,,,0.39,,2013-02-10 23:53:00,
2013-02-10 18:02:00,38.0,-99.9,-100.00,SSE,153,0.0,18.0,-999,0.02,,,0.39,,2013-02-11 00:02:00,
2013-02-10 18:11:00,38.0,-99.9,-100.00,SSE,153,0.0,18.0,-999,0.02,,,0.39,,2013-02-11 00:11:00,
2013-02-10 18:22:00,38.0,-99.9,-100.00,SSE,153,0.0,18.0,-999,0.02,,,0.39,,2013-02-11 00:22:00,
2013-02-10 18:52:00,39.0,-99.9,-100.00,SSE,164,0.0,23.0,-999,0.00,,,0.39,,2013-02-11 00:52:00,
2013-02-10 19:02:00,39.0,-99.9,-100.00,SSE,164,0.0,23.0,-999,0.00,,,0.39,,2013-02-11 01:02:00,
2013-02-10 19:11:00,39.0,-99.9,-100.00,SSE,164,0.0,23.0,-999,0.00,,,0.39,,2013-02-11 01:11:00,
2013-02-10 19:22:00,39.0,-99.9,-100.00,SSE,164,0.0,23.0,-999,0.00,,,0.39,,2013-02-11 01:22:00,
2013-02-10 19:52:00,40.0,-99.9,-100.00,South,183,2.0,20.0,-999,0.00,,,0.39,,2013-02-11 01:52:00,
2013-02-10 20:01:00,40.0,-99.9,-100.00,South,183,2.0,20.0,-999,0.00,,,0.39,,2013-02-11 02:01:00,
2013-02-10 20:11:00,40.0,-99.9,-100.00,South,183,2.0,20.0,-999,0.00,,,0.39,,2013-02-11 02:11:00,
2013-02-10 20:21:00,40.0,-99.9,-100.00,South,183,2.0,20.0,-999,0.00,,,0.39,,2013-02-11 02:21:00,
2013-02-10 20:52:00,41.0,-99.9,-100.00,South,183,5.0,22.0,-999,0.01,,,0.40,,2013-02-11 02:52:00,
2013-02-10 21:02:00,41.0,-99.9,-100.00,South,183,5.0,22.0,-999,0.01,,,0.40,,2013-02-11 03:02:00,
2013-02-10 21:11:00,41.0,-99.9,-100.00,South,183,5.0,22.0,-999,0.01,,,0.40,,2013-02-11 03:11:00,
2013-02-10 21:22:00,41.0,-99.9,-100.00,South,183,5.0,22.0,-999,0.01,,,0.40,,2013-02-11 03:22:00,
2013-02-10 21:52:00,41.0,-99.9,-100.00,South,188,17.0,31.0,-999,0.00,,,0.40,,2013-02-11 03:52:00,
2013-02-10 22:02:00,41.0,-99.9,-100.00,South,188,17.0,31.0,-999,0.00,,,0.40,,2013-02-11 04:02:00,
2013-02-10 22:11:00,41.0,-99.9,-100.00,South,188,17.0,31.0,-999,0.00,,,0.40,,2013-02-11 04:11:00,
2013-02-10 22:22:00,41.0,-99.9,-100.00,South,188,17.0,31.0,-999,0.00,,,0.40,,2013-02-11 04:22:00,
2013-02-10 22:52:00,40.0,-99.9,-100.00,South,185,14.0,28.0,-999,0.00,,,0.40,,2013-02-11 04:52:00,
2013-02-10 23:02:00,40.0,-99.9,-100.00,South,185,14.0,28.0,-999,0.00,,,0.40,,2013-02-11 05:02:00,
2013-02-10 23:12:00,40.0,-99.9,-100.00,South,185,14.0,28.0,-999,0.00,,,0.40,,2013-02-11 05:12:00,
2013-02-10 23:22:00,40.0,-99.9,-100.00,South,185,14.0,28.0,-999,0.00,,,0.40,,2013-02-11 05:22:00,
2013-02-10 23:53:00,39.0,36.0,-100.00,SW,221,12.0,41.0,88,0.00,,,0.40,,2013-02-11 05:53:00,